createdAt,value
2019-05-12T00:00:28.816Z,87.50
2019-05-12T00:02:59.340Z,86.20
2019-05-12T00:05:28.014Z,87.00
2019-05-12T00:07:58.920Z,87.00
2019-05-12T00:10:28.343Z,87.20
2019-05-12T00:12:58.265Z,86.60
2019-05-12T00:15:28.057Z,87.10
2019-05-12T00:17:58.609Z,87.30
2019-05-12T00:20:28.322Z,86.80
2019-05-12T00:22:58.817Z,86.20
2019-05-12T00:25:28.344Z,86.80
2019-05-12T00:27:58.676Z,86.80
2019-05-12T00:30:38.861Z,86.80
2019-05-12T00:33:09.405Z,86.20
2019-05-12T00:35:38.209Z,86.40
2019-05-12T00:38:09.094Z,87.30
2019-05-12T00:40:39.295Z,87.60
2019-05-12T00:43:08.687Z,87.30
2019-05-12T00:45:38.499Z,87.00
2019-05-12T00:48:09.084Z,86.90
2019-05-12T00:50:38.432Z,86.70
2019-05-12T00:53:09.002Z,87.20
2019-05-12T00:55:38.046Z,87.40
2019-05-12T00:58:08.324Z,86.90
2019-05-12T01:00:40.498Z,87.30
2019-05-12T01:06:38.490Z,87.50
2019-05-12T01:09:08.837Z,86.60
2019-05-12T01:11:37.927Z,86.00
2019-05-12T01:14:08.527Z,86.00
2019-05-12T01:16:38.575Z,85.80
2019-05-12T01:19:07.935Z,86.50
2019-05-12T01:21:37.674Z,87.00
2019-05-12T01:24:08.845Z,87.10
2019-05-12T01:26:38.653Z,86.60
2019-05-12T01:29:08.413Z,86.20
2019-05-12T01:31:38.772Z,86.90
2019-05-12T01:34:08.090Z,87.80
2019-05-12T01:36:38.223Z,87.40
2019-05-12T01:40:04.757Z,87.90
2019-05-12T01:42:35.237Z,88.40
2019-05-12T01:45:04.897Z,88.60
2019-05-12T01:47:33.849Z,88.40
2019-05-12T01:50:02.293Z,88.10
2019-05-12T01:52:30.802Z,88.70
2019-05-12T01:54:59.603Z,87.00
2019-05-12T01:57:28.913Z,87.60
2019-05-12T01:59:58.605Z,87.30
2019-05-12T02:02:28.557Z,88.10
2019-05-12T02:05:01.845Z,87.30
2019-05-12T02:07:32.169Z,86.30
2019-05-12T02:10:00.671Z,87.30
2019-05-12T02:12:29.091Z,86.90
2019-05-12T02:14:58.887Z,87.50
2019-05-12T02:17:28.332Z,87.10
2019-05-12T02:19:58.674Z,87.60
2019-05-12T02:22:27.905Z,88.50
2019-05-12T02:24:58.420Z,87.70
2019-05-12T02:27:28.372Z,87.60
2019-05-12T02:29:58.588Z,88.10
2019-05-12T02:32:32.741Z,88.20
2019-05-12T02:34:58.047Z,88.60
2019-05-12T02:37:26.524Z,89.60
2019-05-12T02:39:55.775Z,89.00
2019-05-12T02:42:24.629Z,88.30
2019-05-12T02:44:55.152Z,88.20
2019-05-12T02:47:24.244Z,87.80
2019-05-12T02:49:54.489Z,87.20
2019-05-12T02:52:24.933Z,87.00
2019-05-12T02:55:00.233Z,87.30
2019-05-12T02:57:25.778Z,88.10
2019-05-12T02:59:55.130Z,88.30
2019-05-12T03:02:28.707Z,88.00
2019-05-12T03:04:59.481Z,87.30
2019-05-12T03:07:28.684Z,88.00
2019-05-12T03:10:00.519Z,88.60
2019-05-12T03:12:30.240Z,88.70
2019-05-12T03:14:58.955Z,88.80
2019-05-12T03:17:27.378Z,88.60
2019-05-12T03:19:56.136Z,89.10
2019-05-12T03:22:25.396Z,89.00
2019-05-12T03:25:07.794Z,89.10
2019-05-12T03:27:27.154Z,89.00
2019-05-12T03:30:06.291Z,89.10
2019-05-12T03:32:37.692Z,89.00
2019-05-12T03:35:08.139Z,89.20
2019-05-12T03:37:35.314Z,89.60
2019-05-12T03:40:07.090Z,88.10
2019-05-12T03:42:35.759Z,89.70
2019-05-12T03:45:05.740Z,89.10
2019-05-12T03:47:35.538Z,87.90
2019-05-12T03:50:06.202Z,88.60
2019-05-12T03:52:35.263Z,87.30
2019-05-12T03:55:24.931Z,87.20
2019-05-12T03:57:37.493Z,87.70
2019-05-12T04:00:06.962Z,87.20
2019-05-12T04:02:35.513Z,86.60
2019-05-12T04:05:05.657Z,87.10
2019-05-12T04:07:34.729Z,87.70
2019-05-12T04:10:05.393Z,86.60
2019-05-12T04:12:36.925Z,86.70
2019-05-12T04:15:08.558Z,87.70
2019-05-12T04:17:36.981Z,88.00
2019-05-12T04:20:06.459Z,86.90
2019-05-12T04:22:35.431Z,87.30
2019-05-12T04:25:06.178Z,86.50
2019-05-12T04:27:35.102Z,86.50
2019-05-12T04:30:05.570Z,86.00
2019-05-12T04:32:35.827Z,87.80
2019-05-12T04:35:06.516Z,87.80
2019-05-12T04:37:35.462Z,87.70
2019-05-12T04:40:05.560Z,87.70
2019-05-12T04:42:35.021Z,88.00
2019-05-12T04:45:05.078Z,87.40
2019-05-12T04:47:34.912Z,88.30
2019-05-12T04:50:05.688Z,89.30
2019-05-12T04:52:35.282Z,88.40
2019-05-12T04:55:08.453Z,87.40
2019-05-12T04:57:37.191Z,87.30
2019-05-12T05:00:07.148Z,86.90
2019-05-12T05:02:36.639Z,87.30
2019-05-12T05:05:08.354Z,87.60
2019-05-12T05:07:36.958Z,87.20
2019-05-12T05:10:05.872Z,88.20
2019-05-12T05:12:37.940Z,88.60
2019-05-12T05:15:07.441Z,89.10
2019-05-12T05:17:35.876Z,88.00
2019-05-12T05:20:07.009Z,88.10
2019-05-12T05:22:38.103Z,87.90
2019-05-12T05:25:05.984Z,87.50
2019-05-12T05:27:34.403Z,86.10
2019-05-12T05:30:04.042Z,86.80
2019-05-12T05:32:33.894Z,84.60
2019-05-12T05:35:03.914Z,85.70
2019-05-12T05:37:36.895Z,85.30
2019-05-12T05:40:05.157Z,86.50
2019-05-12T05:42:35.601Z,86.50
2019-05-12T05:45:09.889Z,86.70
2019-05-12T05:47:36.244Z,86.30
2019-05-12T05:50:09.015Z,87.00
2019-05-12T05:52:38.816Z,85.80
2019-05-12T05:55:58.665Z,85.30
2019-05-12T05:58:26.159Z,85.20
2019-05-12T06:01:03.085Z,84.00
2019-05-12T06:03:27.883Z,84.60
2019-05-12T06:06:01.526Z,84.10
2019-05-12T06:08:26.885Z,84.60
2019-05-12T06:10:55.307Z,85.00
2019-05-12T06:13:57.329Z,84.70
2019-05-12T06:16:27.770Z,85.10
2019-05-12T06:18:56.289Z,85.10
2019-05-12T06:21:29.113Z,83.90
2019-05-12T06:23:54.928Z,83.50
2019-05-12T06:26:30.907Z,84.70
2019-05-12T06:28:57.584Z,83.90
2019-05-12T06:31:29.645Z,83.30
2019-05-12T06:33:55.163Z,81.20
2019-05-12T06:36:27.057Z,81.60
2019-05-12T06:38:54.267Z,82.40
2019-05-12T06:41:25.649Z,81.50
2019-05-12T06:43:54.088Z,82.90
2019-05-12T06:46:25.699Z,83.00
2019-05-12T06:48:54.428Z,84.00
2019-05-12T06:51:25.843Z,84.50
2019-05-12T06:53:53.554Z,84.30
2019-05-12T06:56:23.615Z,83.40
2019-05-12T06:58:53.444Z,83.30
2019-05-12T07:01:24.233Z,83.20
2019-05-12T07:03:53.447Z,83.20
2019-05-12T07:06:24.562Z,82.10
2019-05-12T07:09:05.359Z,82.90
2019-05-12T07:11:24.343Z,82.40
2019-05-12T07:14:02.159Z,83.60
2019-05-12T07:16:29.821Z,80.80
2019-05-12T07:18:54.212Z,80.30
2019-05-12T07:21:24.898Z,80.50
2019-05-12T07:23:53.573Z,82.10
2019-05-12T07:26:23.441Z,82.20
2019-05-12T07:28:54.084Z,81.20
2019-05-12T07:31:23.316Z,82.10
2019-05-12T07:33:54.228Z,80.50
2019-05-12T07:36:24.458Z,78.80
2019-05-12T07:38:55.850Z,79.80
2019-05-12T07:41:24.197Z,82.10
2019-05-12T07:43:59.443Z,80.70
2019-05-12T07:46:27.885Z,80.30
2019-05-12T07:48:56.145Z,80.10
2019-05-12T07:51:24.645Z,78.00
2019-05-12T07:53:55.331Z,79.40
2019-05-12T07:56:25.942Z,79.40
2019-05-12T07:58:56.610Z,79.10
2019-05-12T08:01:23.894Z,78.60
2019-05-12T08:03:57.158Z,76.40
2019-05-12T08:06:24.438Z,75.40
2019-05-12T08:08:56.563Z,78.70
2019-05-12T08:11:23.583Z,80.40
2019-05-12T08:13:54.252Z,76.30
2019-05-12T08:16:25.661Z,77.70
2019-05-12T08:18:53.520Z,74.80
2019-05-12T08:21:24.251Z,75.20
2019-05-12T08:23:53.438Z,75.80
2019-05-12T08:26:23.971Z,76.90
2019-05-12T08:28:53.487Z,77.20
2019-05-12T08:31:23.518Z,75.90
2019-05-12T08:33:53.784Z,78.60
2019-05-12T08:36:23.634Z,76.50
2019-05-12T08:38:53.686Z,78.20
2019-05-12T08:41:23.514Z,75.10
2019-05-12T08:43:57.512Z,76.50
2019-05-12T08:46:24.417Z,73.70
2019-05-12T08:48:57.846Z,73.60
2019-05-12T08:51:24.990Z,76.20
2019-05-12T08:54:02.164Z,72.80
2019-05-12T08:56:26.217Z,71.50
2019-05-12T08:58:54.488Z,71.70
2019-05-12T09:01:26.569Z,73.40
2019-05-12T09:03:53.460Z,72.80
2019-05-12T09:06:23.771Z,72.90
2019-05-12T09:08:54.238Z,73.30
2019-05-12T09:11:24.263Z,74.00
2019-05-12T09:14:00.465Z,71.40
2019-05-12T09:16:24.441Z,70.70
2019-05-12T09:18:55.351Z,69.90
2019-05-12T09:21:31.558Z,71.10
2019-05-12T09:23:56.126Z,71.50
2019-05-12T09:26:28.254Z,70.10
2019-05-12T09:28:55.000Z,65.90
2019-05-12T09:31:25.428Z,68.10
2019-05-12T09:33:54.696Z,66.80
2019-05-12T09:36:24.353Z,64.70
2019-05-12T09:39:01.285Z,64.30
2019-05-12T09:41:24.023Z,64.50
2019-05-12T09:43:53.489Z,66.20
2019-05-12T09:46:23.298Z,67.80
2019-05-12T09:48:54.462Z,63.70
2019-05-12T09:51:23.870Z,62.60
2019-05-12T09:53:55.204Z,64.40
2019-05-12T09:56:23.930Z,63.90
2019-05-12T09:59:01.522Z,66.30
2019-05-12T10:01:24.230Z,62.10
2019-05-12T10:03:54.373Z,61.50
2019-05-12T10:06:24.561Z,60.10
2019-05-12T10:08:54.840Z,61.30
2019-05-12T10:11:23.768Z,60.10
2019-05-12T10:13:54.188Z,59.20
2019-05-12T10:16:24.093Z,60.60
2019-05-12T10:18:53.071Z,60.70
2019-05-12T10:21:23.809Z,60.70
2019-05-12T10:24:00.126Z,59.10
2019-05-12T10:26:22.428Z,59.20
2019-05-12T10:28:52.488Z,59.40
2019-05-12T10:31:21.037Z,58.50
2019-05-12T10:33:55.051Z,58.30
2019-05-12T10:36:19.941Z,58.80
2019-05-12T10:38:50.993Z,58.80
2019-05-12T10:41:19.781Z,58.10
2019-05-12T10:43:53.107Z,60.90
2019-05-12T10:46:23.690Z,61.50
2019-05-12T10:48:48.848Z,60.60
2019-05-12T10:51:17.619Z,59.40
2019-05-12T10:53:48.780Z,59.90
2019-05-12T10:56:16.504Z,60.60
2019-05-12T10:58:44.942Z,59.50
2019-05-12T11:01:13.448Z,59.00
2019-05-12T11:03:50.421Z,58.40
2019-05-12T11:06:12.375Z,57.80
2019-05-12T11:08:46.198Z,57.00
2019-05-12T11:11:13.453Z,57.40
2019-05-12T11:13:48.287Z,59.10
2019-05-12T11:16:14.687Z,56.60
2019-05-12T11:18:43.661Z,57.40
2019-05-12T11:21:12.547Z,58.00
2019-05-12T11:23:43.576Z,57.40
2019-05-12T11:26:14.051Z,56.80
2019-05-12T11:28:41.946Z,58.50
2019-05-12T11:31:10.503Z,58.90
2019-05-12T11:33:38.978Z,62.80
2019-05-12T11:36:07.766Z,63.70
2019-05-12T11:38:36.458Z,64.10
2019-05-12T11:41:09.853Z,62.30
2019-05-12T11:43:35.376Z,62.00
2019-05-12T11:46:03.960Z,64.00
2019-05-12T11:48:33.838Z,63.40
2019-05-12T11:51:03.946Z,60.80
2019-05-12T11:53:34.867Z,60.80
2019-05-12T11:56:07.851Z,59.40
2019-05-12T11:58:33.545Z,62.10
2019-05-12T12:01:08.111Z,63.00
2019-05-12T12:03:34.094Z,60.30
2019-05-12T12:06:02.529Z,60.60
2019-05-12T12:08:33.673Z,60.90
2019-05-12T12:11:01.413Z,60.40
2019-05-12T12:13:30.202Z,59.60
2019-05-12T12:16:00.473Z,59.70
2019-05-12T12:18:29.341Z,61.00
2019-05-12T12:21:04.198Z,59.00
2019-05-12T12:23:27.922Z,56.70
2019-05-12T12:25:56.724Z,57.00
2019-05-12T12:28:25.165Z,59.20
2019-05-12T12:30:56.766Z,59.10
2019-05-12T12:33:23.768Z,61.20
2019-05-12T12:35:56.571Z,61.70
2019-05-12T12:38:22.501Z,59.60
2019-05-12T12:40:53.391Z,60.60
2019-05-12T12:43:21.094Z,58.10
2019-05-12T12:45:51.165Z,59.20
2019-05-12T12:48:26.853Z,61.10
2019-05-12T12:50:49.871Z,62.70
2019-05-12T12:53:18.305Z,63.60
2019-05-12T12:55:47.708Z,64.90
2019-05-12T12:58:21.038Z,66.30
2019-05-12T13:00:54.463Z,65.50
2019-05-12T13:03:24.903Z,64.60
2019-05-12T13:05:49.885Z,67.10
2019-05-12T13:08:21.575Z,66.70
2019-05-12T13:10:51.389Z,64.70
2019-05-12T13:13:18.614Z,66.00
2019-05-12T13:15:47.033Z,66.30
2019-05-12T13:18:24.080Z,66.30
2019-05-12T13:20:45.626Z,65.80
2019-05-12T13:23:14.303Z,65.70
2019-05-12T13:25:48.368Z,68.30
2019-05-12T13:28:18.898Z,70.90
2019-05-12T13:30:47.146Z,70.80
2019-05-12T13:33:15.078Z,70.20
2019-05-12T13:35:43.587Z,69.10
2019-05-12T13:38:14.310Z,67.60
2019-05-12T13:40:44.091Z,68.80
2019-05-12T13:43:15.602Z,68.60
2019-05-12T13:45:44.046Z,68.30
2019-05-12T13:48:15.894Z,68.30
2019-05-12T13:50:43.318Z,69.10
2019-05-12T13:53:13.888Z,68.30
2019-05-12T13:55:45.473Z,69.70
2019-05-12T13:58:13.558Z,69.20
2019-05-12T14:00:50.837Z,68.30
2019-05-12T14:03:14.008Z,68.80
2019-05-12T14:05:50.475Z,67.70
2019-05-12T14:08:14.625Z,66.40
2019-05-12T14:10:52.902Z,64.10
2019-05-12T14:13:14.089Z,63.80
2019-05-12T14:15:44.332Z,63.40
2019-05-12T14:18:16.512Z,65.60
2019-05-12T14:20:45.095Z,65.30
2019-05-12T14:23:14.625Z,65.50
2019-05-12T14:25:43.885Z,64.30
2019-05-12T14:28:16.347Z,65.50
2019-05-12T14:30:49.618Z,66.20
2019-05-12T14:33:12.669Z,65.70
2019-05-12T14:35:45.410Z,67.10
2019-05-12T14:38:11.257Z,68.20
2019-05-12T14:40:39.701Z,65.70
2019-05-12T14:43:10.235Z,67.30
2019-05-12T14:45:38.278Z,67.10
2019-05-12T14:48:09.228Z,64.70
2019-05-12T14:50:36.877Z,69.30
2019-05-12T14:53:05.304Z,66.30
2019-05-12T14:55:33.826Z,66.40
2019-05-12T14:58:03.602Z,67.10
2019-05-12T15:00:34.193Z,67.00
2019-05-12T15:03:05.527Z,65.20
2019-05-12T15:05:32.589Z,66.70
2019-05-12T15:08:01.027Z,64.70
2019-05-12T15:10:29.432Z,64.40
2019-05-12T15:13:00.424Z,63.40
2019-05-12T15:15:33.605Z,63.10
2019-05-12T15:18:08.775Z,61.10
2019-05-12T15:20:33.122Z,61.10
2019-05-12T15:23:03.820Z,61.40
2019-05-12T15:25:35.387Z,62.90
2019-05-12T15:28:03.885Z,63.50
2019-05-12T15:30:33.688Z,63.70
2019-05-12T15:33:04.418Z,64.20
2019-05-12T15:35:34.400Z,63.70
2019-05-12T15:38:03.762Z,63.90
2019-05-12T15:40:32.414Z,65.70
2019-05-12T15:43:04.806Z,64.50
2019-05-12T15:45:30.977Z,67.10
2019-05-12T15:47:59.410Z,68.10
2019-05-12T15:50:27.824Z,67.60
2019-05-12T15:52:56.309Z,68.80
2019-05-12T15:55:32.559Z,68.80
2019-05-12T15:57:54.933Z,65.60
2019-05-12T16:00:24.398Z,66.60
2019-05-12T16:02:53.436Z,65.10
2019-05-12T16:05:28.786Z,65.40
2019-05-12T16:07:53.945Z,66.90
2019-05-12T16:10:23.678Z,67.20
2019-05-12T16:12:52.267Z,64.60
2019-05-12T16:15:20.853Z,65.00
2019-05-12T16:17:49.271Z,63.30
2019-05-12T16:20:17.873Z,62.50
2019-05-12T16:22:46.286Z,62.30
2019-05-12T16:25:15.561Z,60.40
2019-05-12T16:27:44.834Z,59.80
2019-05-12T16:30:14.892Z,58.60
2019-05-12T16:32:47.585Z,58.70
2019-05-12T16:35:14.674Z,58.70
2019-05-12T16:37:44.256Z,59.70
2019-05-12T16:40:13.818Z,60.40
2019-05-12T16:42:48.322Z,62.70
2019-05-12T16:45:14.213Z,64.50
2019-05-12T16:47:44.679Z,63.60
2019-05-12T16:50:17.045Z,62.70
2019-05-12T16:52:45.472Z,63.60
2019-05-12T16:55:14.251Z,63.30
2019-05-12T16:57:50.955Z,63.00
2019-05-12T17:00:14.069Z,65.20
2019-05-12T17:02:51.981Z,64.90
2019-05-12T17:05:20.248Z,65.10
2019-05-12T17:07:44.128Z,64.60
2019-05-12T17:10:16.542Z,65.10
2019-05-12T17:12:43.837Z,63.50
2019-05-12T17:15:15.051Z,63.60
2019-05-12T17:17:44.685Z,63.20
2019-05-12T17:20:14.579Z,62.70
2019-05-12T17:22:45.343Z,62.80
2019-05-12T17:25:15.311Z,62.30
2019-05-12T17:27:44.783Z,64.30
2019-05-12T17:30:14.139Z,67.10
2019-05-12T17:32:57.554Z,68.90
2019-05-12T17:35:14.751Z,69.00
2019-05-12T17:37:43.590Z,69.40
2019-05-12T17:40:15.465Z,69.20
2019-05-12T17:42:44.175Z,67.70
2019-05-12T17:45:15.871Z,67.90
2019-05-12T17:47:44.389Z,67.10
2019-05-12T17:50:13.877Z,66.60
2019-05-12T17:52:45.074Z,66.80
2019-05-12T17:55:14.485Z,66.70
2019-05-12T17:57:43.948Z,68.10
2019-05-12T18:00:14.589Z,67.60
2019-05-12T18:02:43.949Z,66.60
2019-05-12T18:05:15.664Z,67.80
2019-05-12T18:07:44.576Z,67.20
2019-05-12T18:10:13.870Z,67.30
2019-05-12T18:12:45.042Z,67.30
2019-05-12T18:15:15.022Z,67.90
2019-05-12T18:17:45.334Z,67.20
2019-05-12T18:20:14.612Z,66.80
2019-05-12T18:22:44.856Z,67.50
2019-05-12T18:25:15.003Z,67.80
2019-05-12T18:27:50.115Z,68.10
2019-05-12T18:30:18.631Z,67.60
2019-05-12T18:32:44.705Z,67.30
2019-05-12T18:35:13.812Z,68.30
2019-05-12T18:37:42.492Z,67.60
2019-05-12T18:40:11.044Z,68.50
2019-05-12T18:42:39.473Z,69.10
2019-05-12T18:45:16.750Z,69.10
2019-05-12T18:47:38.695Z,69.50
2019-05-12T18:50:07.750Z,70.00
2019-05-12T18:52:42.675Z,70.70
2019-05-12T18:55:08.106Z,72.10
2019-05-12T18:57:39.291Z,73.50
2019-05-12T19:00:13.253Z,72.60
2019-05-12T19:02:44.250Z,72.10
2019-05-12T19:05:20.905Z,72.10
2019-05-12T19:07:43.893Z,72.70
2019-05-12T19:10:14.137Z,74.20
2019-05-12T19:12:43.966Z,75.70
2019-05-12T19:15:19.470Z,76.30
2019-05-12T19:17:45.899Z,76.40
2019-05-12T19:20:14.561Z,75.20
2019-05-12T19:22:48.248Z,74.00
2019-05-12T19:25:19.336Z,73.80
2019-05-12T19:27:50.068Z,71.90
2019-05-12T19:30:19.493Z,71.20
2019-05-12T19:32:47.290Z,71.20
2019-05-12T19:35:20.035Z,70.30
2019-05-12T19:37:45.877Z,71.30
2019-05-12T19:40:17.448Z,73.70
2019-05-12T19:42:45.199Z,74.80
2019-05-12T19:45:19.513Z,76.30
2019-05-12T19:47:44.530Z,76.40
2019-05-12T19:50:18.200Z,74.00
2019-05-12T19:52:43.424Z,73.50
2019-05-12T19:55:14.123Z,73.00
2019-05-12T19:57:44.058Z,72.00
2019-05-12T20:00:13.819Z,73.30
2019-05-12T20:02:42.558Z,73.50
2019-05-12T20:05:16.663Z,73.80
2019-05-12T20:07:44.399Z,74.30
2019-05-12T20:10:15.760Z,74.90
2019-05-12T20:12:43.642Z,76.30
2019-05-12T20:15:15.131Z,77.40
2019-05-12T20:17:44.671Z,80.00
2019-05-12T20:20:13.706Z,80.20
2019-05-12T20:22:44.055Z,79.00
2019-05-12T20:25:14.625Z,78.50
2019-05-12T20:27:44.541Z,77.60
2019-05-12T20:30:18.733Z,76.80
2019-05-12T20:32:43.593Z,78.90
2019-05-12T20:35:13.863Z,79.10
2019-05-12T20:37:46.600Z,80.10
2019-05-12T20:40:13.581Z,78.90
2019-05-12T20:43:05.355Z,79.20
2019-05-12T20:45:13.804Z,78.70
2019-05-12T20:47:44.851Z,79.60
2019-05-12T20:50:14.676Z,76.80
2019-05-12T20:52:46.228Z,75.20
2019-05-12T20:55:14.438Z,76.10
2019-05-12T20:57:50.294Z,77.50
2019-05-12T21:00:14.262Z,77.80
2019-05-12T21:02:44.219Z,76.40
2019-05-12T21:05:16.417Z,75.80
2019-05-12T21:07:43.713Z,76.20
2019-05-12T21:10:14.435Z,76.10
2019-05-12T21:12:46.230Z,77.60
2019-05-12T21:15:19.329Z,78.10
2019-05-12T21:17:46.518Z,77.00
2019-05-12T21:20:16.559Z,75.60
2019-05-12T21:22:43.716Z,75.80
2019-05-12T21:25:12.851Z,76.20
2019-05-12T21:27:46.552Z,78.30
2019-05-12T21:30:14.990Z,77.30
2019-05-12T21:32:47.211Z,77.60
2019-05-12T21:35:19.232Z,79.50
2019-05-12T21:37:45.929Z,80.50
2019-05-12T21:40:14.929Z,80.70
2019-05-12T21:42:44.650Z,80.80
2019-05-12T21:45:14.577Z,81.00
2019-05-12T21:47:44.451Z,80.80
2019-05-12T21:50:14.543Z,81.10
2019-05-12T21:52:44.633Z,80.60
2019-05-12T21:55:21.327Z,80.70
2019-05-12T21:57:43.852Z,81.00
2019-05-12T22:00:25.465Z,81.50
2019-05-12T22:02:56.497Z,80.70
2019-05-12T22:05:47.158Z,80.30
2019-05-12T22:07:54.947Z,77.70
2019-05-12T22:10:26.776Z,77.60
2019-05-12T22:12:53.589Z,78.00
2019-05-12T22:15:24.516Z,79.10
2019-05-12T22:18:04.767Z,79.60
2019-05-12T22:20:35.210Z,80.20
2019-05-12T22:23:11.715Z,80.20
2019-05-12T22:25:34.818Z,80.70
2019-05-12T22:28:08.019Z,79.10
2019-05-12T22:30:34.899Z,79.70
2019-05-12T22:33:09.201Z,79.50
2019-05-12T22:35:34.164Z,78.10
2019-05-12T22:38:09.217Z,77.20
2019-05-12T22:40:32.870Z,77.50
2019-05-12T22:43:03.879Z,78.30
2019-05-12T22:45:36.093Z,79.00
2019-05-12T22:48:04.030Z,79.70
2019-05-12T22:50:33.029Z,80.70
2019-05-12T22:53:04.128Z,79.90
2019-05-12T22:55:33.210Z,79.70
2019-05-12T22:58:02.358Z,80.10
2019-05-12T23:00:30.918Z,79.50
2019-05-12T23:03:00.463Z,80.00
2019-05-12T23:05:29.500Z,79.80
2019-05-12T23:08:00.192Z,79.80
2019-05-12T23:10:28.151Z,80.50
2019-05-12T23:13:01.562Z,79.80
2019-05-12T23:15:26.714Z,79.20
2019-05-12T23:17:55.219Z,79.40
2019-05-12T23:20:25.349Z,79.30
2019-05-12T23:22:54.403Z,78.70
2019-05-12T23:25:24.513Z,78.60
2019-05-12T23:27:54.343Z,78.50
2019-05-12T23:30:24.308Z,78.80
2019-05-12T23:32:53.175Z,78.40
2019-05-12T23:35:21.653Z,79.50
2019-05-12T23:37:50.074Z,81.80
2019-05-12T23:40:18.658Z,82.40
2019-05-12T23:42:47.075Z,83.20
2019-05-12T23:45:15.575Z,83.80
2019-05-12T23:47:44.206Z,84.70
2019-05-12T23:50:14.123Z,85.40
2019-05-12T23:52:44.002Z,85.50
2019-05-12T23:55:13.839Z,86.30
2019-05-12T23:57:44.461Z,85.70
